sensor_id;sensor_type;location;lat;lon;timestamp;pressure;altitude;pressure_sealevel;temperature;humidity
54503;BME280;40411;50.090;21.954;2024-02-28T00:00:30;64253.53;;;11.17;92.71
54503;BME280;40411;50.090;21.954;2024-02-28T00:03:15;64182.63;;;11.39;91.31
54503;BME280;40411;50.090;21.954;2024-02-28T00:05:42;64246.41;;;11.21;92.72
54503;BME280;40411;50.090;21.954;2024-02-28T00:08:07;64292.50;;;10.79;95.02
54503;BME280;40411;50.090;21.954;2024-02-28T00:10:33;64231.31;;;11.31;92.45
54503;BME280;40411;50.090;21.954;2024-02-28T00:12:59;64190.31;;;11.27;92.50
54503;BME280;40411;50.090;21.954;2024-02-28T00:15:25;64196.00;;;11.44;90.46
54503;BME280;40411;50.090;21.954;2024-02-28T00:17:52;64217.88;;;11.43;89.81
54503;BME280;40411;50.090;21.954;2024-02-28T00:20:19;64278.16;;;11.18;90.64
54503;BME280;40411;50.090;21.954;2024-02-28T00:22:45;64323.28;;;10.78;92.83
54503;BME280;40411;50.090;21.954;2024-02-28T00:25:11;64315.09;;;10.90;93.12
54503;BME280;40411;50.090;21.954;2024-02-28T00:27:38;64356.19;;;10.87;92.07
54503;BME280;40411;50.090;21.954;2024-02-28T00:30:04;64322.94;;;10.90;90.38
54503;BME280;40411;50.090;21.954;2024-02-28T00:32:32;64346.84;;;10.88;89.74
54503;BME280;40411;50.090;21.954;2024-02-28T00:34:58;64339.50;;;10.79;89.79
54503;BME280;40411;50.090;21.954;2024-02-28T00:37:24;64433.56;;;10.71;90.82
54503;BME280;40411;50.090;21.954;2024-02-28T00:39:50;64422.09;;;10.63;91.01
54503;BME280;40411;50.090;21.954;2024-02-28T00:42:16;64468.72;;;10.41;93.85
54503;BME280;40411;50.090;21.954;2024-02-28T00:44:43;64441.94;;;10.55;92.36
54503;BME280;40411;50.090;21.954;2024-02-28T00:47:09;64434.16;;;10.31;95.68
54503;BME280;40411;50.090;21.954;2024-02-28T00:49:35;64388.13;;;10.29;97.37
54503;BME280;40411;50.090;21.954;2024-02-28T00:52:01;64324.69;;;10.67;94.35
54503;BME280;40411;50.090;21.954;2024-02-28T00:54:27;64368.94;;;10.65;93.98
54503;BME280;40411;50.090;21.954;2024-02-28T00:56:53;64424.59;;;10.37;95.74
54503;BME280;40411;50.090;21.954;2024-02-28T00:59:19;64331.41;;;10.66;93.30
54503;BME280;40411;50.090;21.954;2024-02-28T01:01:45;64430.31;;;10.20;96.91
54503;BME280;40411;50.090;21.954;2024-02-28T01:04:11;64465.06;;;9.85;100.00
54503;BME280;40411;50.090;21.954;2024-02-28T01:06:37;64450.06;;;9.71;100.00
54503;BME280;40411;50.090;21.954;2024-02-28T01:09:04;64413.22;;;9.90;100.00
54503;BME280;40411;50.090;21.954;2024-02-28T01:11:30;64456.44;;;9.65;100.00
54503;BME280;40411;50.090;21.954;2024-02-28T01:13:56;64453.41;;;9.74;100.00
54503;BME280;40411;50.090;21.954;2024-02-28T01:16:22;64405.25;;;9.88;100.00
54503;BME280;40411;50.090;21.954;2024-02-28T01:18:48;64448.03;;;9.96;100.00
54503;BME280;40411;50.090;21.954;2024-02-28T01:21:13;64384.97;;;10.05;100.00
54503;BME280;40411;50.090;21.954;2024-02-28T01:23:39;64453.41;;;9.74;100.00
54503;BME280;40411;50.090;21.954;2024-02-28T01:26:05;64395.69;;;9.93;100.00
54503;BME280;40411;50.090;21.954;2024-02-28T01:28:31;64470.81;;;9.85;100.00
54503;BME280;40411;50.090;21.954;2024-02-28T01:30:57;64476.81;;;9.81;100.00
54503;BME280;40411;50.090;21.954;2024-02-28T01:33:24;64483.63;;;9.66;100.00
54503;BME280;40411;50.090;21.954;2024-02-28T01:35:49;64528.00;;;9.59;100.00
54503;BME280;40411;50.090;21.954;2024-02-28T01:38:15;64459.31;;;9.77;100.00
54503;BME280;40411;50.090;21.954;2024-02-28T01:40:45;64478.38;;;9.73;100.00
54503;BME280;40411;50.090;21.954;2024-02-28T01:43:12;64502.81;;;9.65;100.00
54503;BME280;40411;50.090;21.954;2024-02-28T01:45:38;64472.25;;;9.68;100.00
54503;BME280;40411;50.090;21.954;2024-02-28T01:48:06;64464.44;;;9.68;100.00
54503;BME280;40411;50.090;21.954;2024-02-28T01:50:35;64430.53;;;9.92;99.55
54503;BME280;40411;50.090;21.954;2024-02-28T01:53:04;64548.81;;;9.28;100.00
54503;BME280;40411;50.090;21.954;2024-02-28T01:55:31;64526.25;;;9.33;100.00
54503;BME280;40411;50.090;21.954;2024-02-28T01:57:57;64564.28;;;9.25;100.00
54503;BME280;40411;50.090;21.954;2024-02-28T02:00:24;64530.34;;;9.32;100.00
54503;BME280;40411;50.090;21.954;2024-02-28T02:02:51;64558.59;;;9.42;100.00
54503;BME280;40411;50.090;21.954;2024-02-28T02:05:17;64466.69;;;9.62;100.00
54503;BME280;40411;50.090;21.954;2024-02-28T02:07:48;64525.25;;;9.49;100.00
54503;BME280;40411;50.090;21.954;2024-02-28T02:10:14;64489.44;;;9.59;100.00
54503;BME280;40411;50.090;21.954;2024-02-28T02:12:40;64554.94;;;9.33;100.00
54503;BME280;40411;50.090;21.954;2024-02-28T02:15:06;64598.34;;;9.21;100.00
54503;BME280;40411;50.090;21.954;2024-02-28T02:17:32;64532.81;;;9.23;100.00
54503;BME280;40411;50.090;21.954;2024-02-28T02:19:58;64495.97;;;9.56;100.00
54503;BME280;40411;50.090;21.954;2024-02-28T02:22:27;64503.28;;;9.48;100.00
54503;BME280;40411;50.090;21.954;2024-02-28T02:24:55;64485.94;;;9.54;100.00
54503;BME280;40411;50.090;21.954;2024-02-28T02:27:24;64544.84;;;9.38;100.00
54503;BME280;40411;50.090;21.954;2024-02-28T02:29:50;64479.47;;;9.74;100.00
54503;BME280;40411;50.090;21.954;2024-02-28T02:32:16;64549.28;;;9.43;100.00
54503;BME280;40411;50.090;21.954;2024-02-28T02:34:42;64506.88;;;9.71;97.94
54503;BME280;40411;50.090;21.954;2024-02-28T02:37:08;64516.84;;;9.56;97.77
54503;BME280;40411;50.090;21.954;2024-02-28T02:39:34;64548.88;;;9.52;98.08
54503;BME280;40411;50.090;21.954;2024-02-28T02:42:00;64501.75;;;9.56;97.95
54503;BME280;40411;50.090;21.954;2024-02-28T02:44:26;64515.97;;;9.74;97.90
54503;BME280;40411;50.090;21.954;2024-02-28T02:46:52;64518.88;;;9.55;98.69
54503;BME280;40411;50.090;21.954;2024-02-28T02:49:18;64540.28;;;9.56;100.00
54503;BME280;40411;50.090;21.954;2024-02-28T02:51:44;64502.66;;;9.62;99.39
54503;BME280;40411;50.090;21.954;2024-02-28T02:54:10;64508.69;;;9.44;99.58
54503;BME280;40411;50.090;21.954;2024-02-28T02:56:37;64574.28;;;9.27;100.00
54503;BME280;40411;50.090;21.954;2024-02-28T02:59:02;64532.53;;;9.42;100.00
54503;BME280;40411;50.090;21.954;2024-02-28T03:01:28;64525.38;;;9.59;100.00
54503;BME280;40411;50.090;21.954;2024-02-28T03:03:54;64485.75;;;9.82;100.00
54503;BME280;40411;50.090;21.954;2024-02-28T03:06:20;64486.22;;;9.66;100.00
54503;BME280;40411;50.090;21.954;2024-02-28T03:08:46;64441.06;;;9.77;100.00
54503;BME280;40411;50.090;21.954;2024-02-28T03:11:12;64562.00;;;9.30;100.00
54503;BME280;40411;50.090;21.954;2024-02-28T03:13:38;64502.56;;;9.45;100.00
54503;BME280;40411;50.090;21.954;2024-02-28T03:16:04;64476.00;;;9.30;100.00
54503;BME280;40411;50.090;21.954;2024-02-28T03:18:30;64503.72;;;9.39;100.00
54503;BME280;40411;50.090;21.954;2024-02-28T03:20:56;64462.81;;;9.59;100.00
54503;BME280;40411;50.090;21.954;2024-02-28T03:23:22;64499.41;;;9.45;100.00
54503;BME280;40411;50.090;21.954;2024-02-28T03:25:48;64521.34;;;9.46;100.00
54503;BME280;40411;50.090;21.954;2024-02-28T03:28:14;64420.78;;;9.78;100.00
54503;BME280;40411;50.090;21.954;2024-02-28T03:30:40;64448.28;;;9.60;100.00
54503;BME280;40411;50.090;21.954;2024-02-28T03:33:05;64434.38;;;9.78;100.00
54503;BME280;40411;50.090;21.954;2024-02-28T03:35:31;64410.28;;;9.85;100.00
54503;BME280;40411;50.090;21.954;2024-02-28T03:37:57;64461.50;;;9.87;100.00
54503;BME280;40411;50.090;21.954;2024-02-28T03:40:23;64480.34;;;9.56;100.00
54503;BME280;40411;50.090;21.954;2024-02-28T03:42:49;64490.34;;;9.65;100.00
54503;BME280;40411;50.090;21.954;2024-02-28T03:45:15;64475.25;;;9.66;100.00
54503;BME280;40411;50.090;21.954;2024-02-28T03:47:41;64459.06;;;9.65;100.00
54503;BME280;40411;50.090;21.954;2024-02-28T03:50:07;64486.22;;;9.66;100.00
54503;BME280;40411;50.090;21.954;2024-02-28T03:52:33;64460.06;;;9.80;100.00
54503;BME280;40411;50.090;21.954;2024-02-28T03:54:59;64486.09;;;9.56;100.00
54503;BME280;40411;50.090;21.954;2024-02-28T03:57:24;64411.97;;;9.87;100.00
54503;BME280;40411;50.090;21.954;2024-02-28T03:59:51;64406.13;;;9.93;100.00
54503;BME280;40411;50.090;21.954;2024-02-28T04:02:16;64471.91;;;9.62;100.00
54503;BME280;40411;50.090;21.954;2024-02-28T04:04:42;64519.13;;;9.44;100.00
54503;BME280;40411;50.090;21.954;2024-02-28T04:07:08;64532.47;;;9.56;100.00
54503;BME280;40411;50.090;21.954;2024-02-28T04:09:34;64399.97;;;9.95;100.00
54503;BME280;40411;50.090;21.954;2024-02-28T04:12:00;64463.47;;;9.69;100.00
54503;BME280;40411;50.090;21.954;2024-02-28T04:14:26;64534.34;;;9.53;100.00
54503;BME280;40411;50.090;21.954;2024-02-28T04:16:52;64463.41;;;9.83;100.00
54503;BME280;40411;50.090;21.954;2024-02-28T04:19:19;64485.13;;;9.65;100.00
54503;BME280;40411;50.090;21.954;2024-02-28T04:21:44;64425.72;;;9.90;100.00
54503;BME280;40411;50.090;21.954;2024-02-28T04:24:10;64288.75;;;10.78;95.99
54503;BME280;40411;50.090;21.954;2024-02-28T04:26:36;64231.09;;;10.92;94.59
54503;BME280;40411;50.090;21.954;2024-02-28T04:29:02;64473.59;;;9.88;99.35
54503;BME280;40411;50.090;21.954;2024-02-28T04:31:33;64378.91;;;10.16;98.90
54503;BME280;40411;50.090;21.954;2024-02-28T04:33:59;64362.03;;;10.29;97.44
54503;BME280;40411;50.090;21.954;2024-02-28T04:36:25;64395.25;;;10.19;97.85
54503;BME280;40411;50.090;21.954;2024-02-28T04:38:51;64382.84;;;10.13;97.68
54503;BME280;40411;50.090;21.954;2024-02-28T04:41:17;64424.22;;;10.15;98.30
54503;BME280;40411;50.090;21.954;2024-02-28T04:43:43;64465.50;;;9.76;100.00
54503;BME280;40411;50.090;21.954;2024-02-28T04:46:08;64437.94;;;10.01;99.91
54503;BME280;40411;50.090;21.954;2024-02-28T04:48:34;64475.69;;;9.80;100.00
54503;BME280;40411;50.090;21.954;2024-02-28T04:51:00;64424.88;;;10.01;100.00
54503;BME280;40411;50.090;21.954;2024-02-28T04:53:27;64402.22;;;10.14;99.04
54503;BME280;40411;50.090;21.954;2024-02-28T04:55:52;64266.25;;;10.59;96.50
54503;BME280;40411;50.090;21.954;2024-02-28T04:58:18;64225.59;;;10.87;94.58
54503;BME280;40411;50.090;21.954;2024-02-28T05:00:44;64316.63;;;10.55;96.15
54503;BME280;40411;50.090;21.954;2024-02-28T05:03:10;64287.03;;;10.66;95.37
54503;BME280;40411;50.090;21.954;2024-02-28T05:05:36;64279.91;;;10.52;95.95
54503;BME280;40411;50.090;21.954;2024-02-28T05:08:02;64403.84;;;10.22;97.08
54503;BME280;40411;50.090;21.954;2024-02-28T05:10:28;64347.69;;;10.26;97.58
54503;BME280;40411;50.090;21.954;2024-02-28T05:12:54;64362.03;;;10.29;97.77
54503;BME280;40411;50.090;21.954;2024-02-28T05:15:19;64303.56;;;10.55;95.87
54503;BME280;40411;50.090;21.954;2024-02-28T05:17:45;64277.75;;;10.77;94.80
54503;BME280;40411;50.090;21.954;2024-02-28T05:20:11;64324.06;;;10.57;95.53
54503;BME280;40411;50.090;21.954;2024-02-28T05:22:37;64294.31;;;10.66;94.96
54503;BME280;40411;50.090;21.954;2024-02-28T05:25:06;64229.84;;;10.88;94.27
54503;BME280;40411;50.090;21.954;2024-02-28T05:27:32;64330.78;;;10.39;97.19
54503;BME280;40411;50.090;21.954;2024-02-28T05:29:58;64241.44;;;10.72;95.34
54503;BME280;40411;50.090;21.954;2024-02-28T05:32:24;64200.38;;;11.02;93.87
54503;BME280;40411;50.090;21.954;2024-02-28T05:34:49;64286.09;;;10.51;95.61
54503;BME280;40411;50.090;21.954;2024-02-28T05:37:16;64388.56;;;10.20;97.52
54503;BME280;40411;50.090;21.954;2024-02-28T05:39:42;64292.91;;;10.43;96.86
54503;BME280;40411;50.090;21.954;2024-02-28T05:42:08;64363.13;;;10.31;98.13
54503;BME280;40411;50.090;21.954;2024-02-28T05:44:34;64394.28;;;10.04;98.56
54503;BME280;40411;50.090;21.954;2024-02-28T05:47:00;64435.44;;;9.87;98.96
54503;BME280;40411;50.090;21.954;2024-02-28T05:49:26;64329.13;;;10.38;97.14
54503;BME280;40411;50.090;21.954;2024-02-28T05:51:52;64299.38;;;10.29;98.50
54503;BME280;40411;50.090;21.954;2024-02-28T05:54:19;64395.34;;;9.88;98.58
54503;BME280;40411;50.090;21.954;2024-02-28T05:56:45;64345.06;;;10.09;98.96
54503;BME280;40411;50.090;21.954;2024-02-28T05:59:11;64371.38;;;10.04;99.20
54503;BME280;40411;50.090;21.954;2024-02-28T06:01:37;64313.28;;;10.18;98.80
54503;BME280;40411;50.090;21.954;2024-02-28T06:04:05;64292.09;;;10.47;96.62
54503;BME280;40411;50.090;21.954;2024-02-28T06:06:31;64341.16;;;10.29;96.70
54503;BME280;40411;50.090;21.954;2024-02-28T06:08:57;64369.91;;;10.22;97.81
54503;BME280;40411;50.090;21.954;2024-02-28T06:11:23;64324.50;;;10.14;97.36
54503;BME280;40411;50.090;21.954;2024-02-28T06:13:51;64357.38;;;10.06;98.34
54503;BME280;40411;50.090;21.954;2024-02-28T06:16:17;64273.41;;;10.66;95.64
54503;BME280;40411;50.090;21.954;2024-02-28T06:18:44;64190.94;;;10.84;95.28
54503;BME280;40411;50.090;21.954;2024-02-28T06:21:10;64200.16;;;10.63;95.87
54503;BME280;40411;50.090;21.954;2024-02-28T06:23:38;64187.59;;;10.81;95.35
54503;BME280;40411;50.090;21.954;2024-02-28T06:26:04;64154.34;;;11.10;93.52
54503;BME280;40411;50.090;21.954;2024-02-28T06:28:30;64219.72;;;10.93;93.25
54503;BME280;40411;50.090;21.954;2024-02-28T06:30:58;64183.19;;;11.03;93.52
54503;BME280;40411;50.090;21.954;2024-02-28T06:33:23;64196.16;;;10.84;93.99
54503;BME280;40411;50.090;21.954;2024-02-28T06:35:49;64089.06;;;11.20;93.41
54503;BME280;40411;50.090;21.954;2024-02-28T06:38:15;64043.44;;;11.55;91.41
54503;BME280;40411;50.090;21.954;2024-02-28T06:40:41;63978.47;;;11.73;91.92
54503;BME280;40411;50.090;21.954;2024-02-28T06:43:07;63945.72;;;11.86;88.82
54503;BME280;40411;50.090;21.954;2024-02-28T06:45:33;64101.44;;;11.27;92.03
54503;BME280;40411;50.090;21.954;2024-02-28T06:47:59;64205.75;;;10.78;94.63
54503;BME280;40411;50.090;21.954;2024-02-28T06:50:25;64145.09;;;11.04;92.88
54503;BME280;40411;50.090;21.954;2024-02-28T06:52:50;64117.66;;;11.17;93.07
54503;BME280;40411;50.090;21.954;2024-02-28T06:55:19;64063.81;;;11.55;91.11
54503;BME280;40411;50.090;21.954;2024-02-28T06:57:45;64107.91;;;11.30;91.00
54503;BME280;40411;50.090;21.954;2024-02-28T07:00:11;64124.28;;;11.24;91.59
54503;BME280;40411;50.090;21.954;2024-02-28T07:02:38;64120.13;;;11.25;91.93
54503;BME280;40411;50.090;21.954;2024-02-28T07:05:04;64100.84;;;11.16;92.46
54503;BME280;40411;50.090;21.954;2024-02-28T07:07:33;64061.03;;;11.52;90.16
54503;BME280;40411;50.090;21.954;2024-02-28T07:09:59;64099.13;;;11.32;91.03
54503;BME280;40411;50.090;21.954;2024-02-28T07:12:25;64126.25;;;11.40;90.21
54503;BME280;40411;50.090;21.954;2024-02-28T07:14:51;64090.31;;;11.24;91.96
54503;BME280;40411;50.090;21.954;2024-02-28T07:17:17;63988.69;;;11.68;90.16
54503;BME280;40411;50.090;21.954;2024-02-28T07:19:43;64078.38;;;11.44;90.71
54503;BME280;40411;50.090;21.954;2024-02-28T07:22:09;64024.16;;;11.47;91.14
54503;BME280;40411;50.090;21.954;2024-02-28T07:24:35;64062.44;;;11.58;89.93
54503;BME280;40411;50.090;21.954;2024-02-28T07:27:03;63990.31;;;11.79;89.26
54503;BME280;40411;50.090;21.954;2024-02-28T07:29:29;64025.56;;;11.73;89.26
54503;BME280;40411;50.090;21.954;2024-02-28T07:31:55;64023.22;;;11.78;88.60
54503;BME280;40411;50.090;21.954;2024-02-28T07:34:21;63940.19;;;11.81;89.26
54503;BME280;40411;50.090;21.954;2024-02-28T07:36:46;64051.44;;;11.68;89.56
54503;BME280;40411;50.090;21.954;2024-02-28T07:39:12;63973.53;;;11.78;89.76
54503;BME280;40411;50.090;21.954;2024-02-28T07:41:39;63843.19;;;12.17;87.22
54503;BME280;40411;50.090;21.954;2024-02-28T07:44:06;63855.44;;;12.21;87.34
54503;BME280;40411;50.090;21.954;2024-02-28T07:46:32;63784.75;;;12.53;85.66
54503;BME280;40411;50.090;21.954;2024-02-28T07:48:59;63610.56;;;13.15;82.31
54503;BME280;40411;50.090;21.954;2024-02-28T07:51:26;63624.75;;;13.16;82.25
54503;BME280;40411;50.090;21.954;2024-02-28T07:53:52;63700.81;;;12.94;83.66
54503;BME280;40411;50.090;21.954;2024-02-28T07:56:19;63549.63;;;13.25;83.67
54503;BME280;40411;50.090;21.954;2024-02-28T07:58:45;63604.81;;;13.27;81.88
54503;BME280;40411;50.090;21.954;2024-02-28T08:01:11;63389.91;;;13.81;81.09
54503;BME280;40411;50.090;21.954;2024-02-28T08:03:37;63403.66;;;13.84;80.63
54503;BME280;40411;50.090;21.954;2024-02-28T08:06:04;63429.09;;;13.64;80.69
54503;BME280;40411;50.090;21.954;2024-02-28T08:08:30;63385.06;;;13.92;79.75
54503;BME280;40411;50.090;21.954;2024-02-28T08:10:56;63356.44;;;13.84;79.55
54503;BME280;40411;50.090;21.954;2024-02-28T08:13:22;63249.56;;;14.17;80.57
54503;BME280;40411;50.090;21.954;2024-02-28T08:15:47;62967.06;;;14.83;77.74
54503;BME280;40411;50.090;21.954;2024-02-28T08:18:13;63010.19;;;14.84;76.64
54503;BME280;40411;50.090;21.954;2024-02-28T08:20:39;63040.94;;;14.75;78.25
54503;BME280;40411;50.090;21.954;2024-02-28T08:23:05;62711.03;;;15.39;76.73
54503;BME280;40411;50.090;21.954;2024-02-28T08:25:32;63027.63;;;14.70;77.20
54503;BME280;40411;50.090;21.954;2024-02-28T08:27:58;62930.91;;;14.86;80.21
54503;BME280;40411;50.090;21.954;2024-02-28T08:30:24;62706.28;;;15.39;76.93
54503;BME280;40411;50.090;21.954;2024-02-28T08:32:51;62634.16;;;15.58;75.52
54503;BME280;40411;50.090;21.954;2024-02-28T08:35:18;62650.19;;;15.46;77.32
54503;BME280;40411;50.090;21.954;2024-02-28T08:37:44;62783.16;;;15.23;77.43
54503;BME280;40411;50.090;21.954;2024-02-28T08:40:10;62628.66;;;15.71;73.31
54503;BME280;40411;50.090;21.954;2024-02-28T08:42:37;62760.47;;;15.81;69.15
54503;BME280;40411;50.090;21.954;2024-02-28T08:45:03;62230.81;;;16.68;68.19
54503;BME280;40411;50.090;21.954;2024-02-28T08:47:29;62348.25;;;16.65;67.88
54503;BME280;40411;50.090;21.954;2024-02-28T08:49:55;62001.41;;;16.98;69.68
54503;BME280;40411;50.090;21.954;2024-02-28T08:52:21;61954.53;;;17.04;70.37
54503;BME280;40411;50.090;21.954;2024-02-28T08:54:47;62083.13;;;16.98;67.42
54503;BME280;40411;50.090;21.954;2024-02-28T08:57:14;61951.38;;;17.04;69.06
54503;BME280;40411;50.090;21.954;2024-02-28T08:59:40;62011.75;;;17.31;64.60
54503;BME280;40411;50.090;21.954;2024-02-28T09:02:07;61464.31;;;17.94;65.67
54503;BME280;40411;50.090;21.954;2024-02-28T09:04:33;61792.56;;;17.74;62.06
54503;BME280;40411;50.090;21.954;2024-02-28T09:07:00;61877.09;;;17.87;58.49
54503;BME280;40411;50.090;21.954;2024-02-28T09:09:26;62043.34;;;17.82;55.73
54503;BME280;40411;50.090;21.954;2024-02-28T09:11:53;61757.94;;;18.33;55.25
54503;BME280;40411;50.090;21.954;2024-02-28T09:14:19;61744.25;;;18.40;54.05
54503;BME280;40411;50.090;21.954;2024-02-28T09:16:45;61301.19;;;19.12;51.99
54503;BME280;40411;50.090;21.954;2024-02-28T09:19:11;61635.41;;;18.65;53.06
54503;BME280;40411;50.090;21.954;2024-02-28T09:21:37;61627.50;;;18.60;54.06
54503;BME280;40411;50.090;21.954;2024-02-28T09:24:03;61552.97;;;18.77;53.36
54503;BME280;40411;50.090;21.954;2024-02-28T09:26:29;61508.56;;;18.88;52.12
54503;BME280;40411;50.090;21.954;2024-02-28T09:28:55;61753.75;;;18.49;52.45
54503;BME280;40411;50.090;21.954;2024-02-28T09:31:21;61613.75;;;18.74;52.43
54503;BME280;40411;50.090;21.954;2024-02-28T09:33:46;62169.59;;;17.92;52.62
54503;BME280;40411;50.090;21.954;2024-02-28T09:36:14;61536.06;;;18.84;52.20
54503;BME280;40411;50.090;21.954;2024-02-28T09:38:41;61978.63;;;18.16;52.93
54503;BME280;40411;50.090;21.954;2024-02-28T09:41:09;61677.69;;;18.67;51.68
54503;BME280;40411;50.090;21.954;2024-02-28T09:43:42;61573.06;;;18.89;50.97
54503;BME280;40411;50.090;21.954;2024-02-28T09:46:09;61135.81;;;19.52;49.80
54503;BME280;40411;50.090;21.954;2024-02-28T09:48:40;61580.47;;;18.81;51.72
54503;BME280;40411;50.090;21.954;2024-02-28T09:51:08;61451.41;;;19.04;51.11
54503;BME280;40411;50.090;21.954;2024-02-28T09:53:35;61650.25;;;18.82;50.69
54503;BME280;40411;50.090;21.954;2024-02-28T09:56:01;61746.94;;;18.70;51.08
54503;BME280;40411;50.090;21.954;2024-02-28T09:58:27;61883.72;;;18.47;51.39
54503;BME280;40411;50.090;21.954;2024-02-28T10:00:58;61785.50;;;18.59;51.85
54503;BME280;40411;50.090;21.954;2024-02-28T10:03:25;61939.69;;;18.40;51.24
54503;BME280;40411;50.090;21.954;2024-02-28T10:05:52;61652.88;;;18.84;51.10
54503;BME280;40411;50.090;21.954;2024-02-28T10:08:18;62013.03;;;18.24;51.23
54503;BME280;40411;50.090;21.954;2024-02-28T10:10:45;62226.19;;;18.00;51.92
54503;BME280;40411;50.090;21.954;2024-02-28T10:13:11;62109.50;;;18.00;53.08
54503;BME280;40411;50.090;21.954;2024-02-28T10:15:37;61932.31;;;18.43;52.28
54503;BME280;40411;50.090;21.954;2024-02-28T10:18:04;62086.84;;;18.08;51.61
54503;BME280;40411;50.090;21.954;2024-02-28T10:20:31;61993.50;;;18.25;52.32
54503;BME280;40411;50.090;21.954;2024-02-28T10:22:57;62004.09;;;18.28;51.73
54503;BME280;40411;50.090;21.954;2024-02-28T10:25:23;62024.09;;;18.19;51.77
54503;BME280;40411;50.090;21.954;2024-02-28T10:27:49;61926.53;;;18.47;50.91
54503;BME280;40411;50.090;21.954;2024-02-28T10:30:15;61716.31;;;18.84;49.79
54503;BME280;40411;50.090;21.954;2024-02-28T10:32:49;61858.44;;;18.63;51.01
54503;BME280;40411;50.090;21.954;2024-02-28T10:35:19;61717.91;;;18.81;49.96
54503;BME280;40411;50.090;21.954;2024-02-28T10:37:46;61921.78;;;18.48;50.56
54503;BME280;40411;50.090;21.954;2024-02-28T10:40:13;61934.47;;;18.50;50.71
54503;BME280;40411;50.090;21.954;2024-02-28T10:42:42;62180.88;;;18.13;50.84
54503;BME280;40411;50.090;21.954;2024-02-28T10:45:12;61622.22;;;18.88;50.66
54503;BME280;40411;50.090;21.954;2024-02-28T10:47:38;61666.63;;;18.92;49.26
54503;BME280;40411;50.090;21.954;2024-02-28T10:50:05;61874.78;;;18.51;50.98
54503;BME280;40411;50.090;21.954;2024-02-28T10:52:33;61792.38;;;18.71;50.49
54503;BME280;40411;50.090;21.954;2024-02-28T10:55:01;61688.31;;;18.90;49.84
54503;BME280;40411;50.090;21.954;2024-02-28T10:57:29;61763.34;;;18.79;50.47
54503;BME280;40411;50.090;21.954;2024-02-28T10:59:57;61876.94;;;18.66;49.76
54503;BME280;40411;50.090;21.954;2024-02-28T11:02:24;61914.44;;;18.61;50.35
54503;BME280;40411;50.090;21.954;2024-02-28T11:04:52;61871.66;;;18.68;49.63
54503;BME280;40411;50.090;21.954;2024-02-28T11:07:21;61864.25;;;18.64;50.48
54503;BME280;40411;50.090;21.954;2024-02-28T11:09:53;61932.38;;;18.58;49.65
54503;BME280;40411;50.090;21.954;2024-02-28T11:12:29;61637.00;;;19.00;49.78
54503;BME280;40411;50.090;21.954;2024-02-28T11:14:59;61873.81;;;18.73;49.67
54503;BME280;40411;50.090;21.954;2024-02-28T11:17:29;61729.53;;;18.89;49.85
54503;BME280;40411;50.090;21.954;2024-02-28T11:19:55;61752.81;;;18.84;50.07
54503;BME280;40411;50.090;21.954;2024-02-28T11:22:21;61571.94;;;19.08;50.01
54503;BME280;40411;50.090;21.954;2024-02-28T11:24:47;61843.66;;;18.69;49.42
54503;BME280;40411;50.090;21.954;2024-02-28T11:27:16;61372.97;;;19.38;49.30
54503;BME280;40411;50.090;21.954;2024-02-28T11:29:43;61681.94;;;19.02;49.00
54503;BME280;40411;50.090;21.954;2024-02-28T11:32:11;61472.47;;;19.25;49.31
54503;BME280;40411;50.090;21.954;2024-02-28T11:34:38;61562.44;;;19.09;49.98
54503;BME280;40411;50.090;21.954;2024-02-28T11:37:06;61289.78;;;19.55;48.68
54503;BME280;40411;50.090;21.954;2024-02-28T11:39:32;61690.44;;;18.97;49.50
54503;BME280;40411;50.090;21.954;2024-02-28T11:42:11;61598.38;;;19.08;48.89
54503;BME280;40411;50.090;21.954;2024-02-28T11:44:39;61519.63;;;19.09;50.07
54503;BME280;40411;50.090;21.954;2024-02-28T11:47:08;61902.34;;;18.72;49.74
54503;BME280;40411;50.090;21.954;2024-02-28T11:49:35;61823.56;;;18.70;49.64
54503;BME280;40411;50.090;21.954;2024-02-28T11:52:01;61770.25;;;18.88;49.68
54503;BME280;40411;50.090;21.954;2024-02-28T11:54:27;61812.50;;;18.75;49.95
54503;BME280;40411;50.090;21.954;2024-02-28T11:56:53;61535.97;;;19.19;49.31
54503;BME280;40411;50.090;21.954;2024-02-28T11:59:19;61263.91;;;19.48;49.54
54503;BME280;40411;50.090;21.954;2024-02-28T12:01:45;61458.19;;;19.26;49.54
54503;BME280;40411;50.090;21.954;2024-02-28T12:04:13;61783.44;;;18.80;50.05
54503;BME280;40411;50.090;21.954;2024-02-28T12:06:39;61710.50;;;18.91;49.75
54503;BME280;40411;50.090;21.954;2024-02-28T12:09:10;61799.28;;;18.70;50.89
54503;BME280;40411;50.090;21.954;2024-02-28T12:11:37;61748.03;;;18.82;50.61
54503;BME280;40411;50.090;21.954;2024-02-28T12:14:07;61888.03;;;18.61;50.22
54503;BME280;40411;50.090;21.954;2024-02-28T12:16:37;61656.56;;;18.83;50.84
54503;BME280;40411;50.090;21.954;2024-02-28T12:19:10;61488.94;;;19.07;50.12
54503;BME280;40411;50.090;21.954;2024-02-28T12:21:39;61682.50;;;18.87;50.60
54503;BME280;40411;50.090;21.954;2024-02-28T12:24:09;61649.19;;;19.01;49.81
54503;BME280;40411;50.090;21.954;2024-02-28T12:26:36;61653.41;;;19.03;48.67
54503;BME280;40411;50.090;21.954;2024-02-28T12:29:02;61534.91;;;19.13;49.38
54503;BME280;40411;50.090;21.954;2024-02-28T12:31:28;61343.34;;;19.38;49.03
54503;BME280;40411;50.090;21.954;2024-02-28T12:33:54;61331.06;;;19.54;48.00
54503;BME280;40411;50.090;21.954;2024-02-28T12:36:20;61652.34;;;19.09;48.14
54503;BME280;40411;50.090;21.954;2024-02-28T12:38:47;61362.34;;;19.46;48.96
54503;BME280;40411;50.090;21.954;2024-02-28T12:41:13;61655.50;;;19.05;49.19
54503;BME280;40411;50.090;21.954;2024-02-28T12:43:39;61860.63;;;18.75;49.63
54503;BME280;40411;50.090;21.954;2024-02-28T12:46:05;61726.91;;;18.87;50.09